Time;durP1;ratioP1;P1;durP2;ratioP2;P2;SDS_P1;SDS_P2;PMS_P1;PMS_P2;Temp;Humidity;BMP_temperature;BMP_pressure;BME280_temperature;BME280_humidity;BME280_pressure;Samples;Min_cycle;Max_cycle;Signal;HPM_P1;HPM_P2
2022/12/16 00:00:14;;;;;;;30.15;12.90;;;;;;;4.43;100.00;94509.72;5029050;28;20778;-75
2022/12/16 00:02:42;;;;;;;24.17;13.02;;;;;;;4.13;100.00;94473.44;5029935;28;20201;-75
2022/12/16 00:05:09;;;;;;;32.47;13.52;;;;;;;4.34;100.00;94500.75;5029682;28;20223;-75
2022/12/16 00:07:36;;;;;;;33.42;12.95;;;;;;;4.22;100.00;94490.47;5018469;28;20233;-74
2022/12/16 00:10:03;;;;;;;30.05;13.30;;;;;;;4.51;100.00;94512.53;5026098;28;20216;-75
2022/12/16 00:12:30;;;;;;;31.83;14.13;;;;;;;4.29;100.00;94489.00;5029585;28;20212;-75
2022/12/16 00:14:57;;;;;;;20.45;10.30;;;;;;;4.26;100.00;94486.91;5015946;28;20196;-74
2022/12/16 00:17:23;;;;;;;24.00;11.82;;;;;;;4.17;100.00;94480.59;5024307;28;20200;-74
2022/12/16 00:19:51;;;;;;;23.00;11.82;;;;;;;4.38;100.00;94501.72;5024471;28;20292;-75
2022/12/16 00:22:18;;;;;;;34.88;12.52;;;;;;;4.28;100.00;94492.75;5019975;28;20805;-75
2022/12/16 00:24:45;;;;;;;21.63;11.60;;;;;;;4.26;100.00;94505.66;5039290;28;20537;-76
2022/12/16 00:27:12;;;;;;;34.47;13.05;;;;;;;4.37;100.00;94482.19;5028967;28;20201;-75
2022/12/16 00:29:38;;;;;;;31.27;10.77;;;;;;;4.22;100.00;94472.50;5029566;28;20224;-74
2022/12/16 00:32:05;;;;;;;28.52;10.38;;;;;;;4.05;100.00;94482.13;5029536;28;20695;-75
2022/12/16 00:34:32;;;;;;;38.60;12.80;;;;;;;4.20;100.00;94485.41;5016451;28;20263;-75
2022/12/16 00:37:01;;;;;;;35.33;14.75;;;;;;;4.24;100.00;94507.03;5017916;28;20852;-75
2022/12/16 00:39:27;;;;;;;26.55;13.10;;;;;;;4.30;100.00;94495.16;5028939;28;20212;-75
2022/12/16 00:41:54;;;;;;;19.90;9.20;;;;;;;3.89;100.00;94479.66;5030357;28;20205;-75
2022/12/16 00:44:21;;;;;;;23.98;10.13;;;;;;;4.19;100.00;94481.13;5016838;28;20204;-74
2022/12/16 00:46:48;;;;;;;30.30;12.27;;;;;;;4.35;100.00;94489.72;5029274;28;20231;-74
2022/12/16 00:49:14;;;;;;;35.65;13.32;;;;;;;4.18;100.00;94481.41;5009978;28;20209;-75
2022/12/16 00:51:41;;;;;;;50.35;13.98;;;;;;;4.06;100.00;94483.72;5022484;28;20201;-75
2022/12/16 00:54:09;;;;;;;27.77;11.10;;;;;;;4.14;100.00;94475.03;5023019;28;20290;-75
2022/12/16 00:56:36;;;;;;;23.58;11.40;;;;;;;4.27;100.00;94485.81;5023254;28;20729;-75
2022/12/16 00:59:03;;;;;;;20.90;10.38;;;;;;;4.21;100.00;94478.16;5029866;28;20207;-75
2022/12/16 01:01:30;;;;;;;25.20;11.38;;;;;;;4.31;100.00;94490.59;5029160;28;20282;-76
2022/12/16 01:03:57;;;;;;;23.77;11.35;;;;;;;4.23;100.00;94484.03;5029445;28;20286;-75
2022/12/16 01:06:24;;;;;;;16.17;9.13;;;;;;;3.85;100.00;94465.25;5029512;28;20291;-75
2022/12/16 01:08:51;;;;;;;34.65;12.00;;;;;;;3.97;100.00;94480.09;5029234;28;20277;-75
2022/12/16 01:11:20;;;;;;;18.60;9.43;;;;;;;3.86;100.00;94482.13;5015846;28;20267;-75
2022/12/16 01:13:50;;;;;;;17.90;9.10;;;;;;;3.74;100.00;94477.19;5022237;28;20295;-75
2022/12/16 01:16:16;;;;;;;19.52;9.98;;;;;;;3.67;100.00;94486.69;5022844;28;20211;-75
2022/12/16 01:18:43;;;;;;;23.48;11.27;;;;;;;3.77;100.00;94491.91;5017938;28;20227;-75
2022/12/16 01:21:13;;;;;;;26.45;10.35;;;;;;;3.81;100.00;94500.97;5018826;28;20215;-75
2022/12/16 01:23:41;;;;;;;16.75;10.05;;;;;;;3.99;100.00;94494.78;5041509;28;20192;-75
2022/12/16 01:26:07;;;;;;;26.67;10.57;;;;;;;4.12;100.00;94478.00;5037765;28;20287;-74
2022/12/16 01:28:36;;;;;;;25.75;12.02;;;;;;;4.04;100.00;94480.53;5033968;28;20207;-75
2022/12/16 01:31:02;;;;;;;15.52;7.93;;;;;;;3.82;100.00;94465.06;5019955;28;20208;-75
2022/12/16 01:33:30;;;;;;;25.48;12.23;;;;;;;3.98;100.00;94469.09;5023317;28;20236;-75
2022/12/16 01:36:01;;;;;;;28.30;12.25;;;;;;;4.17;100.00;94475.25;5026982;28;20208;-74
2022/12/16 01:38:28;;;;;;;22.85;9.48;;;;;;;4.20;100.00;94468.50;5024438;28;20196;-75
2022/12/16 01:40:54;;;;;;;26.65;12.63;;;;;;;4.27;100.00;94474.28;5019714;28;20270;-75
2022/12/16 01:43:25;;;;;;;21.08;10.45;;;;;;;4.46;100.00;94471.59;5032951;28;20224;-75
2022/12/16 01:45:59;;;;;;;25.33;9.93;;;;;;;4.42;100.00;94465.22;5019860;28;20556;-75
2022/12/16 01:48:38;;;;;;;36.65;11.52;;;;;;;4.28;100.00;94455.22;5032738;28;20673;-75
2022/12/16 01:51:11;;;;;;;24.23;11.85;;;;;;;4.20;100.00;94458.59;5021478;28;20204;-74
2022/12/16 01:53:41;;;;;;;25.92;11.00;;;;;;;4.06;100.00;94448.88;5030959;28;20217;-75
2022/12/16 01:56:08;;;;;;;25.50;11.05;;;;;;;3.98;100.00;94461.03;5022772;28;20205;-75
2022/12/16 01:58:39;;;;;;;18.40;10.38;;;;;;;4.21;100.00;94444.09;5029873;28;20263;-75
2022/12/16 02:01:08;;;;;;;32.55;11.82;;;;;;;4.38;100.00;94470.34;5023300;28;20806;-74
2022/12/16 02:03:37;;;;;;;45.42;13.32;;;;;;;4.33;100.00;94458.94;5019484;28;20204;-75
2022/12/16 02:06:05;;;;;;;25.42;11.65;;;;;;;4.27;100.00;94463.56;5021341;28;20668;-76
2022/12/16 02:08:32;;;;;;;19.45;8.95;;;;;;;4.02;100.00;94440.63;5025840;28;20646;-75
2022/12/16 02:11:12;;;;;;;35.65;10.93;;;;;;;4.11;100.00;94430.84;5024638;28;20212;-75
2022/12/16 02:13:50;;;;;;;21.92;9.88;;;;;;;4.09;100.00;94427.66;5019928;28;20217;-76
2022/12/16 02:16:26;;;;;;;19.60;9.65;;;;;;;4.24;100.00;94416.69;5030964;28;20246;-75
2022/12/16 02:19:00;;;;;;;28.95;10.20;;;;;;;4.11;100.00;94417.44;5022607;28;20231;-75
2022/12/16 02:21:38;;;;;;;41.70;12.70;;;;;;;4.07;100.00;94421.81;5028175;28;20201;-75
2022/12/16 02:24:37;;;;;;;23.08;11.35;;;;;;;4.09;100.00;94426.88;5036676;28;20362;-76
2022/12/16 02:27:42;;;;;;;24.83;11.45;;;;;;;4.05;100.00;94428.53;5012898;28;20281;-75
2022/12/16 02:30:40;;;;;;;21.42;10.30;;;;;;;4.09;100.00;94425.00;5016540;28;20208;-75
2022/12/16 02:33:23;;;;;;;24.98;10.20;;;;;;;4.29;100.00;94424.66;5019337;28;20193;-74
2022/12/16 02:35:57;;;;;;;19.27;9.65;;;;;;;4.39;100.00;94428.25;5028995;28;20205;-75
2022/12/16 02:38:29;;;;;;;19.30;8.85;;;;;;;4.17;100.00;94402.88;5022536;28;20202;-74
2022/12/16 02:41:02;;;;;;;30.50;13.60;;;;;;;4.19;100.00;94426.72;5018537;28;20205;-74
2022/12/16 02:43:51;;;;;;;28.77;11.63;;;;;;;4.30;100.00;94433.50;5032032;28;20197;-74
2022/12/16 02:46:22;;;;;;;8.35;4.63;;;;;;;4.23;100.00;94420.47;5021635;28;20218;-74
2022/12/16 02:48:49;;;;;;;26.60;11.98;;;;;;;4.23;100.00;94441.94;5032170;28;20204;-74
2022/12/16 02:51:16;;;;;;;22.02;10.80;;;;;;;4.02;100.00;94451.34;5031507;28;20649;-75
2022/12/16 02:53:45;;;;;;;18.73;9.05;;;;;;;4.10;100.00;94452.59;5031444;28;20232;-74
2022/12/16 02:56:28;;;;;;;25.45;9.82;;;;;;;4.23;100.00;94467.94;5021515;28;20660;-75
2022/12/16 02:59:04;;;;;;;12.30;7.15;;;;;;;4.15;100.00;94477.41;5025274;28;20197;-74
2022/12/16 03:01:40;;;;;;;21.90;8.50;;;;;;;4.23;100.00;94468.72;5012494;28;20745;-75
2022/12/16 03:04:12;;;;;;;17.05;8.82;;;;;;;4.08;100.00;94468.97;5031845;28;20729;-75
2022/12/16 03:06:44;;;;;;;21.15;9.63;;;;;;;4.19;100.00;94453.50;5028224;28;20201;-74
2022/12/16 03:09:15;;;;;;;17.95;8.55;;;;;;;4.29;100.00;94474.78;5022060;28;20699;-75
2022/12/16 03:11:44;;;;;;;25.50;7.88;;;;;;;4.26;100.00;94446.69;5017744;28;20200;-76
2022/12/16 03:14:15;;;;;;;24.52;9.35;;;;;;;4.26;100.00;94445.88;5019557;28;20296;-74
2022/12/16 03:16:45;;;;;;;12.73;7.55;;;;;;;3.86;100.00;94426.66;5030625;28;20204;-75
2022/12/16 03:19:12;;;;;;;24.73;8.82;;;;;;;4.00;100.00;94437.44;5031421;28;20554;-75
2022/12/16 03:21:46;;;;;;;15.73;7.95;;;;;;;3.94;100.00;94417.19;5017851;28;20204;-75
2022/12/16 03:24:14;;;;;;;15.65;8.57;;;;;;;3.81;100.00;94440.13;5040582;28;20192;-75
2022/12/16 03:26:52;;;;;;;25.95;12.15;;;;;;;3.72;100.00;94408.91;5031573;28;20215;-74
2022/12/16 03:29:26;;;;;;;30.17;11.05;;;;;;;3.85;100.00;94432.28;5028695;28;20196;-76
2022/12/16 03:31:57;;;;;;;17.15;8.88;;;;;;;3.84;100.00;94422.66;5022208;28;20192;-74
2022/12/16 03:34:32;;;;;;;27.10;10.68;;;;;;;3.78;100.00;94423.84;5017744;28;20624;-74
2022/12/16 03:37:04;;;;;;;13.90;6.18;;;;;;;3.82;100.00;94424.88;5018425;28;20656;-74
2022/12/16 03:39:33;;;;;;;22.33;11.45;;;;;;;3.81;100.00;94426.75;5018286;28;20204;-75
2022/12/16 03:42:02;;;;;;;24.73;11.95;;;;;;;4.00;100.00;94426.72;5030666;28;20299;-74
2022/12/16 03:44:29;;;;;;;26.73;12.65;;;;;;;3.86;100.00;94433.91;5023189;28;20251;-75
2022/12/16 03:46:58;;;;;;;12.95;5.25;;;;;;;3.73;100.00;94439.97;5025290;28;20208;-75
2022/12/16 03:49:25;;;;;;;7.57;5.45;;;;;;;3.66;100.00;94458.28;5023051;28;20205;-74
2022/12/16 03:51:53;;;;;;;41.67;18.02;;;;;;;3.65;100.00;94464.75;5024345;28;20211;-75
2022/12/16 03:54:20;;;;;;;31.05;15.82;;;;;;;3.78;100.00;94456.00;5018414;28;20220;-75
2022/12/16 03:56:46;;;;;;;49.78;17.10;;;;;;;3.96;100.00;94462.44;5030512;28;20258;-75
2022/12/16 03:59:14;;;;;;;35.35;15.38;;;;;;;4.09;100.00;94454.47;5030828;28;20200;-76
2022/12/16 04:01:43;;;;;;;38.90;16.73;;;;;;;4.25;100.00;94466.53;5030832;28;20579;-74
2022/12/16 04:04:12;;;;;;;32.40;13.45;;;;;;;4.16;100.00;94468.28;5030906;28;20208;-75
2022/12/16 04:06:38;;;;;;;26.55;14.32;;;;;;;3.99;100.00;94476.03;5030380;28;21115;-75
2022/12/16 04:09:06;;;;;;;33.28;15.18;;;;;;;4.08;100.00;94465.47;5029989;28;20719;-75
2022/12/16 04:25:34;;;;;;;25.65;11.32;;;;;;;4.38;100.00;94474.91;4979018;28;20214;-74
2022/12/16 04:28:01;;;;;;;27.17;13.65;;;;;;;4.35;100.00;94451.41;4996366;28;20208;-74
2022/12/16 04:30:33;;;;;;;25.33;12.93;;;;;;;4.28;100.00;94439.16;5029903;28;20223;-74
